createdAt,value
2023-05-14T00:02:51.184Z,39.50
2023-05-14T00:09:52.856Z,39.81
2023-05-14T00:16:54.396Z,40.22
2023-05-14T00:23:55.924Z,40.41
2023-05-14T00:30:57.494Z,40.74
2023-05-14T00:37:59.102Z,40.62
2023-05-14T00:45:00.758Z,40.36
2023-05-14T00:52:02.345Z,39.65
2023-05-14T00:59:03.998Z,39.31
2023-05-14T01:06:08.869Z,39.35
2023-05-14T01:13:13.813Z,39.80
2023-05-14T01:20:15.492Z,39.51
2023-05-14T01:27:31.852Z,39.33
2023-05-14T01:34:33.424Z,39.44
2023-05-14T01:41:35.986Z,39.61
2023-05-14T01:48:41.355Z,40.04
2023-05-14T01:55:43.347Z,39.54
2023-05-14T02:02:45.029Z,39.29
2023-05-14T02:09:47.079Z,39.13
2023-05-14T02:16:50.915Z,38.78
2023-05-14T02:23:52.485Z,39.06
2023-05-14T02:30:58.802Z,38.85
2023-05-14T02:38:00.618Z,38.85
2023-05-14T02:45:03.038Z,38.57
2023-05-14T02:52:04.916Z,38.53
2023-05-14T02:59:06.487Z,38.22
2023-05-14T03:06:08.463Z,38.32
2023-05-14T03:13:10.028Z,38.93
2023-05-14T03:20:12.582Z,38.39
2023-05-14T03:27:14.121Z,37.82
2023-05-14T03:34:15.842Z,37.48
2023-05-14T03:41:18.447Z,37.46
2023-05-14T03:48:20.213Z,37.48
2023-05-14T03:55:21.990Z,37.28
2023-05-14T04:02:23.680Z,37.34
2023-05-14T04:09:25.298Z,37.30
2023-05-14T04:16:26.931Z,37.43
2023-05-14T04:23:29.357Z,37.67
2023-05-14T04:30:31.860Z,37.54
2023-05-14T04:37:33.373Z,37.64
2023-05-14T04:44:35.221Z,37.93
2023-05-14T04:51:36.785Z,38.16
2023-05-14T04:58:38.366Z,38.16
2023-05-14T05:05:42.227Z,37.99
2023-05-14T05:12:43.832Z,37.85
2023-05-14T05:19:46.034Z,37.73
2023-05-14T05:26:47.714Z,37.91
2023-05-14T05:33:49.273Z,37.57
2023-05-14T05:40:51.061Z,36.82
2023-05-14T05:47:52.702Z,36.69
2023-05-14T05:54:54.481Z,36.33
2023-05-14T06:01:56.120Z,35.96
2023-05-14T06:08:57.706Z,35.72
2023-05-14T06:15:59.259Z,36.24
2023-05-14T06:23:00.934Z,35.94
2023-05-14T06:30:02.496Z,35.89
2023-05-14T06:37:04.286Z,36.15
2023-05-14T06:44:05.840Z,35.78
2023-05-14T06:51:07.426Z,35.20
2023-05-14T06:58:09.288Z,35.58
2023-05-14T07:05:11.191Z,35.52
2023-05-14T07:12:12.784Z,35.34
2023-05-14T07:19:14.591Z,35.23
2023-05-14T07:26:16.216Z,34.96
2023-05-14T07:33:17.851Z,34.54
2023-05-14T07:40:19.435Z,33.97
2023-05-14T07:47:21.112Z,34.12
2023-05-14T07:54:22.684Z,33.42
2023-05-14T08:01:24.238Z,32.54
2023-05-14T08:08:26.198Z,32.18
2023-05-14T08:15:28.080Z,31.38
2023-05-14T08:22:29.719Z,31.46
2023-05-14T08:29:31.710Z,31.15
2023-05-14T08:36:33.255Z,29.90
2023-05-14T08:44:12.473Z,29.26
2023-05-14T08:51:14.080Z,29.45
2023-05-14T08:58:15.610Z,27.90
2023-05-14T09:05:17.330Z,28.30
2023-05-14T09:12:19.068Z,27.10
2023-05-14T09:19:20.686Z,26.83
2023-05-14T09:26:31.326Z,24.63
2023-05-14T09:33:32.970Z,24.13
2023-05-14T09:40:34.498Z,23.24
2023-05-14T09:47:36.985Z,23.17
2023-05-14T09:54:38.616Z,22.03
2023-05-14T10:01:40.335Z,21.07
2023-05-14T10:08:46.742Z,22.04
2023-05-14T10:15:49.413Z,21.08
2023-05-14T10:22:51.051Z,20.74
2023-05-14T10:29:56.261Z,20.43
2023-05-14T10:37:01.681Z,20.94
2023-05-14T10:44:08.275Z,22.47
2023-05-14T10:51:10.686Z,25.29
2023-05-14T10:58:12.491Z,24.36
2023-05-14T11:05:17.796Z,24.11
2023-05-14T11:12:19.985Z,24.05
2023-05-14T11:19:21.646Z,25.51
2023-05-14T11:26:23.733Z,25.59
2023-05-14T11:33:25.439Z,26.09
2023-05-14T11:40:27.042Z,26.49
2023-05-14T11:47:29.279Z,26.36
2023-05-14T11:54:31.526Z,26.73
2023-05-14T12:01:37.425Z,26.82
2023-05-14T12:08:38.995Z,26.60
2023-05-14T12:15:41.021Z,26.17
2023-05-14T12:22:42.641Z,25.11
2023-05-14T12:29:44.215Z,23.78
2023-05-14T12:36:45.803Z,24.54
2023-05-14T12:43:47.812Z,24.03
2023-05-14T12:50:49.354Z,24.38
2023-05-14T12:57:50.896Z,23.80
2023-05-14T13:04:52.456Z,23.77
2023-05-14T13:11:54.219Z,24.23
2023-05-14T13:18:55.899Z,24.37
2023-05-14T13:25:57.491Z,24.64
2023-05-14T13:32:59.722Z,24.39
2023-05-14T13:40:01.285Z,24.69
2023-05-14T13:47:02.819Z,24.77
2023-05-14T13:54:04.451Z,25.05
2023-05-14T14:01:06.080Z,25.06
2023-05-14T14:08:21.891Z,25.18
2023-05-14T14:15:24.873Z,24.97
2023-05-14T14:22:28.992Z,24.96
2023-05-14T14:29:31.461Z,24.70
2023-05-14T14:36:33.078Z,24.29
2023-05-14T14:43:34.611Z,24.67
2023-05-14T14:50:36.163Z,23.81
2023-05-14T14:57:37.774Z,24.11
2023-05-14T15:04:40.383Z,23.84
2023-05-14T15:11:42.049Z,23.74
2023-05-14T15:18:43.699Z,24.68
2023-05-14T15:25:45.360Z,24.40
2023-05-14T15:32:46.987Z,24.75
2023-05-14T15:39:48.675Z,24.55
2023-05-14T15:46:50.432Z,25.02
2023-05-14T15:53:54.049Z,24.92
2023-05-14T16:00:55.943Z,24.93
2023-05-14T16:07:57.591Z,25.09
2023-05-14T16:14:59.856Z,25.45
2023-05-14T16:22:01.406Z,25.75
2023-05-14T16:29:03.036Z,25.79
2023-05-14T16:36:04.660Z,26.21
2023-05-14T16:43:06.385Z,26.41
2023-05-14T16:50:08.266Z,26.27
2023-05-14T16:57:09.836Z,26.42
2023-05-14T17:04:11.514Z,26.76
2023-05-14T17:11:13.353Z,27.65
2023-05-14T17:18:15.009Z,28.10
2023-05-14T17:25:16.694Z,28.22
2023-05-14T17:32:18.421Z,28.45
2023-05-14T17:39:20.072Z,28.47
2023-05-14T17:46:21.790Z,28.71
2023-05-14T17:53:23.338Z,28.89
2023-05-14T18:00:24.882Z,29.28
2023-05-14T18:07:26.454Z,29.12
2023-05-14T18:14:28.022Z,29.56
2023-05-14T18:21:29.665Z,29.64
2023-05-14T18:28:33.526Z,30.27
2023-05-14T18:35:35.633Z,30.46
2023-05-14T18:42:37.217Z,30.16
2023-05-14T18:49:40.166Z,30.76
2023-05-14T18:56:46.839Z,30.81
2023-05-14T19:03:49.234Z,31.19
2023-05-14T19:10:51.179Z,31.70
2023-05-14T19:17:53.880Z,32.75
2023-05-14T19:24:55.577Z,33.18
2023-05-14T19:31:57.235Z,33.86
2023-05-14T19:38:58.869Z,34.37
2023-05-14T19:46:01.463Z,34.02
2023-05-14T19:53:03.964Z,34.35
2023-05-14T20:00:09.155Z,34.76
2023-05-14T20:07:17.177Z,35.08
2023-05-14T20:14:18.735Z,35.28
2023-05-14T20:21:20.400Z,35.42
2023-05-14T20:28:22.024Z,35.54
2023-05-14T20:35:23.785Z,36.25
2023-05-14T20:42:25.735Z,36.55
2023-05-14T20:49:27.690Z,36.71
2023-05-14T20:56:30.285Z,37.06
2023-05-14T21:03:32.082Z,37.31
2023-05-14T21:10:33.752Z,37.73
2023-05-14T21:17:35.351Z,37.70
2023-05-14T21:24:36.881Z,38.07
2023-05-14T21:31:38.549Z,38.27
2023-05-14T21:38:40.188Z,38.62
2023-05-14T21:45:43.012Z,38.88
2023-05-14T21:52:44.599Z,38.71
2023-05-14T21:59:46.136Z,38.94
2023-05-14T22:06:47.685Z,39.27
2023-05-14T22:13:49.233Z,39.69
2023-05-14T22:20:51.121Z,39.92
2023-05-14T22:27:52.841Z,40.35
2023-05-14T22:34:54.607Z,40.65
2023-05-14T22:41:56.213Z,41.04
2023-05-14T22:48:57.733Z,41.40
2023-05-14T22:55:59.421Z,41.74
2023-05-14T23:03:01.114Z,41.75
2023-05-14T23:10:02.749Z,42.03
2023-05-14T23:17:04.491Z,42.56
2023-05-14T23:24:06.264Z,42.93
2023-05-14T23:31:07.880Z,42.88
2023-05-14T23:38:09.424Z,42.74
2023-05-14T23:45:11.763Z,43.26
2023-05-14T23:52:13.365Z,43.31
2023-05-14T23:59:14.940Z,43.59
